sensor_id;sensor_type;location;lat;lon;timestamp;P1;durP1;ratioP1;P2;durP2;ratioP2
8986;SDS011;4529;51.360;12.474;2023-02-23T00:01:35;19.93;;;12.30;;
8986;SDS011;4529;51.360;12.474;2023-02-23T00:06:39;17.80;;;11.50;;
8986;SDS011;4529;51.360;12.474;2023-02-23T00:11:43;18.77;;;12.33;;
8986;SDS011;4529;51.360;12.474;2023-02-23T00:16:47;20.47;;;12.57;;
8986;SDS011;4529;51.360;12.474;2023-02-23T00:21:52;20.00;;;12.37;;
8986;SDS011;4529;51.360;12.474;2023-02-23T00:26:56;20.80;;;12.70;;
8986;SDS011;4529;51.360;12.474;2023-02-23T00:32:00;22.10;;;12.83;;
8986;SDS011;4529;51.360;12.474;2023-02-23T00:37:04;16.67;;;11.80;;
8986;SDS011;4529;51.360;12.474;2023-02-23T00:42:08;18.53;;;12.63;;
8986;SDS011;4529;51.360;12.474;2023-02-23T00:47:11;17.60;;;12.13;;
8986;SDS011;4529;51.360;12.474;2023-02-23T00:52:15;17.10;;;11.70;;
8986;SDS011;4529;51.360;12.474;2023-02-23T00:57:18;18.43;;;12.40;;
8986;SDS011;4529;51.360;12.474;2023-02-23T01:02:22;19.27;;;11.93;;
8986;SDS011;4529;51.360;12.474;2023-02-23T01:07:25;18.63;;;12.27;;
8986;SDS011;4529;51.360;12.474;2023-02-23T01:12:28;18.87;;;12.90;;
8986;SDS011;4529;51.360;12.474;2023-02-23T01:17:33;18.57;;;12.63;;
8986;SDS011;4529;51.360;12.474;2023-02-23T01:22:37;19.43;;;12.43;;
8986;SDS011;4529;51.360;12.474;2023-02-23T01:27:41;19.13;;;12.17;;
8986;SDS011;4529;51.360;12.474;2023-02-23T01:32:44;18.80;;;12.07;;
8986;SDS011;4529;51.360;12.474;2023-02-23T01:37:48;21.23;;;12.73;;
8986;SDS011;4529;51.360;12.474;2023-02-23T01:42:51;18.23;;;11.90;;
8986;SDS011;4529;51.360;12.474;2023-02-23T01:47:56;17.97;;;11.63;;
8986;SDS011;4529;51.360;12.474;2023-02-23T01:52:58;17.00;;;11.87;;
8986;SDS011;4529;51.360;12.474;2023-02-23T01:58:20;16.90;;;11.57;;
8986;SDS011;4529;51.360;12.474;2023-02-23T02:03:37;17.87;;;12.53;;
8986;SDS011;4529;51.360;12.474;2023-02-23T02:08:33;19.23;;;12.37;;
8986;SDS011;4529;51.360;12.474;2023-02-23T02:13:35;19.57;;;12.13;;
8986;SDS011;4529;51.360;12.474;2023-02-23T02:18:56;20.37;;;12.43;;
8986;SDS011;4529;51.360;12.474;2023-02-23T02:24:26;21.27;;;13.53;;
8986;SDS011;4529;51.360;12.474;2023-02-23T02:29:36;19.43;;;11.97;;
8986;SDS011;4529;51.360;12.474;2023-02-23T02:35:01;21.60;;;12.90;;
8986;SDS011;4529;51.360;12.474;2023-02-23T02:45:33;19.53;;;12.57;;
8986;SDS011;4529;51.360;12.474;2023-02-23T02:50:40;18.87;;;11.53;;
8986;SDS011;4529;51.360;12.474;2023-02-23T02:55:46;20.03;;;12.47;;
8986;SDS011;4529;51.360;12.474;2023-02-23T03:00:50;17.90;;;11.60;;
8986;SDS011;4529;51.360;12.474;2023-02-23T03:05:54;21.47;;;12.57;;
8986;SDS011;4529;51.360;12.474;2023-02-23T03:11:02;19.23;;;12.70;;
8986;SDS011;4529;51.360;12.474;2023-02-23T03:16:21;20.17;;;12.57;;
8986;SDS011;4529;51.360;12.474;2023-02-23T03:21:53;20.33;;;12.40;;
8986;SDS011;4529;51.360;12.474;2023-02-23T03:27:00;19.70;;;12.07;;
8986;SDS011;4529;51.360;12.474;2023-02-23T03:32:06;19.20;;;13.37;;
8986;SDS011;4529;51.360;12.474;2023-02-23T03:37:21;19.30;;;12.60;;
8986;SDS011;4529;51.360;12.474;2023-02-23T03:42:31;19.30;;;12.13;;
8986;SDS011;4529;51.360;12.474;2023-02-23T03:47:34;21.13;;;13.13;;
8986;SDS011;4529;51.360;12.474;2023-02-23T03:52:48;22.23;;;12.83;;
8986;SDS011;4529;51.360;12.474;2023-02-23T03:57:50;19.53;;;11.83;;
8986;SDS011;4529;51.360;12.474;2023-02-23T04:02:53;20.50;;;12.43;;
8986;SDS011;4529;51.360;12.474;2023-02-23T04:07:56;17.13;;;11.53;;
8986;SDS011;4529;51.360;12.474;2023-02-23T04:13:07;18.87;;;12.93;;
8986;SDS011;4529;51.360;12.474;2023-02-23T04:18:11;21.77;;;12.43;;
8986;SDS011;4529;51.360;12.474;2023-02-23T04:23:16;23.33;;;13.00;;
8986;SDS011;4529;51.360;12.474;2023-02-23T04:28:20;21.40;;;13.13;;
8986;SDS011;4529;51.360;12.474;2023-02-23T04:33:24;20.40;;;13.30;;
8986;SDS011;4529;51.360;12.474;2023-02-23T04:38:28;20.97;;;12.73;;
8986;SDS011;4529;51.360;12.474;2023-02-23T04:43:32;19.83;;;12.43;;
8986;SDS011;4529;51.360;12.474;2023-02-23T04:48:36;19.33;;;12.83;;
8986;SDS011;4529;51.360;12.474;2023-02-23T04:53:40;19.03;;;12.33;;
8986;SDS011;4529;51.360;12.474;2023-02-23T04:58:43;19.50;;;12.73;;
8986;SDS011;4529;51.360;12.474;2023-02-23T05:03:47;18.97;;;12.10;;
8986;SDS011;4529;51.360;12.474;2023-02-23T05:08:50;20.17;;;12.43;;
8986;SDS011;4529;51.360;12.474;2023-02-23T05:13:54;17.80;;;12.20;;
8986;SDS011;4529;51.360;12.474;2023-02-23T05:18:57;18.13;;;12.53;;
8986;SDS011;4529;51.360;12.474;2023-02-23T05:24:00;17.27;;;11.73;;
8986;SDS011;4529;51.360;12.474;2023-02-23T05:29:04;16.67;;;11.10;;
8986;SDS011;4529;51.360;12.474;2023-02-23T05:34:07;17.20;;;11.77;;
8986;SDS011;4529;51.360;12.474;2023-02-23T05:39:11;17.07;;;11.37;;
8986;SDS011;4529;51.360;12.474;2023-02-23T05:44:16;18.27;;;11.83;;
8986;SDS011;4529;51.360;12.474;2023-02-23T05:49:20;16.27;;;11.13;;
8986;SDS011;4529;51.360;12.474;2023-02-23T05:54:24;15.87;;;11.17;;
8986;SDS011;4529;51.360;12.474;2023-02-23T05:59:28;17.57;;;11.83;;
8986;SDS011;4529;51.360;12.474;2023-02-23T06:04:32;20.87;;;11.47;;
8986;SDS011;4529;51.360;12.474;2023-02-23T06:09:35;17.97;;;11.50;;
8986;SDS011;4529;51.360;12.474;2023-02-23T06:14:39;15.37;;;10.57;;
8986;SDS011;4529;51.360;12.474;2023-02-23T06:19:42;14.93;;;10.97;;
8986;SDS011;4529;51.360;12.474;2023-02-23T06:24:46;16.13;;;10.77;;
8986;SDS011;4529;51.360;12.474;2023-02-23T06:29:49;15.17;;;10.60;;
8986;SDS011;4529;51.360;12.474;2023-02-23T06:34:53;16.43;;;10.67;;
8986;SDS011;4529;51.360;12.474;2023-02-23T06:39:58;16.57;;;10.63;;
8986;SDS011;4529;51.360;12.474;2023-02-23T06:45:02;18.40;;;10.57;;
8986;SDS011;4529;51.360;12.474;2023-02-23T06:50:06;14.30;;;10.17;;
8986;SDS011;4529;51.360;12.474;2023-02-23T06:55:10;14.33;;;10.20;;
8986;SDS011;4529;51.360;12.474;2023-02-23T07:00:14;15.90;;;10.37;;
8986;SDS011;4529;51.360;12.474;2023-02-23T07:05:19;13.83;;;10.20;;
8986;SDS011;4529;51.360;12.474;2023-02-23T07:10:23;13.90;;;10.80;;
8986;SDS011;4529;51.360;12.474;2023-02-23T07:15:27;14.73;;;10.13;;
8986;SDS011;4529;51.360;12.474;2023-02-23T07:20:31;15.10;;;10.13;;
8986;SDS011;4529;51.360;12.474;2023-02-23T07:25:34;13.73;;;10.23;;
8986;SDS011;4529;51.360;12.474;2023-02-23T07:30:37;13.00;;;10.23;;
8986;SDS011;4529;51.360;12.474;2023-02-23T07:35:41;13.77;;;9.90;;
8986;SDS011;4529;51.360;12.474;2023-02-23T07:40:44;13.07;;;10.20;;
8986;SDS011;4529;51.360;12.474;2023-02-23T07:45:48;11.37;;;7.33;;
8986;SDS011;4529;51.360;12.474;2023-02-23T07:50:51;16.17;;;7.47;;
8986;SDS011;4529;51.360;12.474;2023-02-23T07:55:58;13.37;;;7.60;;
8986;SDS011;4529;51.360;12.474;2023-02-23T08:01:01;12.30;;;7.10;;
8986;SDS011;4529;51.360;12.474;2023-02-23T08:06:05;12.37;;;7.67;;
8986;SDS011;4529;51.360;12.474;2023-02-23T08:11:08;10.60;;;7.20;;
8986;SDS011;4529;51.360;12.474;2023-02-23T08:16:12;16.40;;;10.80;;
8986;SDS011;4529;51.360;12.474;2023-02-23T08:21:16;13.53;;;10.40;;
8986;SDS011;4529;51.360;12.474;2023-02-23T08:26:20;16.70;;;11.67;;
8986;SDS011;4529;51.360;12.474;2023-02-23T08:31:23;17.07;;;11.93;;
8986;SDS011;4529;51.360;12.474;2023-02-23T08:36:27;19.03;;;12.57;;
8986;SDS011;4529;51.360;12.474;2023-02-23T08:41:30;17.07;;;11.93;;
8986;SDS011;4529;51.360;12.474;2023-02-23T08:46:34;17.07;;;12.77;;
8986;SDS011;4529;51.360;12.474;2023-02-23T08:51:37;22.57;;;13.70;;
8986;SDS011;4529;51.360;12.474;2023-02-23T08:56:41;23.83;;;13.90;;
8986;SDS011;4529;51.360;12.474;2023-02-23T09:01:44;20.87;;;13.63;;
8986;SDS011;4529;51.360;12.474;2023-02-23T09:06:48;21.77;;;13.87;;
8986;SDS011;4529;51.360;12.474;2023-02-23T09:11:51;19.27;;;13.63;;
8986;SDS011;4529;51.360;12.474;2023-02-23T09:16:55;18.30;;;13.37;;
8986;SDS011;4529;51.360;12.474;2023-02-23T09:21:59;19.40;;;13.40;;
8986;SDS011;4529;51.360;12.474;2023-02-23T09:27:03;17.80;;;12.97;;
8986;SDS011;4529;51.360;12.474;2023-02-23T09:32:07;19.40;;;13.67;;
8986;SDS011;4529;51.360;12.474;2023-02-23T09:37:10;20.37;;;14.63;;
8986;SDS011;4529;51.360;12.474;2023-02-23T09:52:48;21.60;;;15.17;;
8986;SDS011;4529;51.360;12.474;2023-02-23T09:57:51;26.40;;;16.87;;
8986;SDS011;4529;51.360;12.474;2023-02-23T10:08:25;23.40;;;15.17;;
8986;SDS011;4529;51.360;12.474;2023-02-23T10:13:54;25.23;;;16.60;;
8986;SDS011;4529;51.360;12.474;2023-02-23T10:19:21;23.33;;;15.30;;
8986;SDS011;4529;51.360;12.474;2023-02-23T10:24:44;24.10;;;15.90;;
8986;SDS011;4529;51.360;12.474;2023-02-23T10:29:54;28.13;;;17.10;;
8986;SDS011;4529;51.360;12.474;2023-02-23T10:34:57;26.97;;;17.23;;
8986;SDS011;4529;51.360;12.474;2023-02-23T10:40:00;27.80;;;17.53;;
8986;SDS011;4529;51.360;12.474;2023-02-23T10:45:05;28.13;;;17.57;;
8986;SDS011;4529;51.360;12.474;2023-02-23T10:50:09;25.97;;;17.70;;
8986;SDS011;4529;51.360;12.474;2023-02-23T10:55:20;26.67;;;18.53;;
8986;SDS011;4529;51.360;12.474;2023-02-23T11:00:28;27.53;;;18.73;;
8986;SDS011;4529;51.360;12.474;2023-02-23T11:05:35;28.73;;;19.17;;
8986;SDS011;4529;51.360;12.474;2023-02-23T11:11:16;28.67;;;18.27;;
8986;SDS011;4529;51.360;12.474;2023-02-23T11:16:02;28.87;;;19.47;;
8986;SDS011;4529;51.360;12.474;2023-02-23T11:21:08;33.47;;;21.10;;
8986;SDS011;4529;51.360;12.474;2023-02-23T11:26:19;31.20;;;21.17;;
8986;SDS011;4529;51.360;12.474;2023-02-23T11:31:22;33.67;;;21.30;;
8986;SDS011;4529;51.360;12.474;2023-02-23T11:36:26;27.73;;;20.57;;
8986;SDS011;4529;51.360;12.474;2023-02-23T11:41:31;32.50;;;21.03;;
8986;SDS011;4529;51.360;12.474;2023-02-23T11:46:35;32.97;;;21.70;;
8986;SDS011;4529;51.360;12.474;2023-02-23T11:51:38;28.53;;;20.37;;
8986;SDS011;4529;51.360;12.474;2023-02-23T11:56:41;28.23;;;19.50;;
8986;SDS011;4529;51.360;12.474;2023-02-23T12:01:51;27.13;;;19.73;;
8986;SDS011;4529;51.360;12.474;2023-02-23T12:06:54;29.97;;;19.57;;
8986;SDS011;4529;51.360;12.474;2023-02-23T12:12:16;26.13;;;19.10;;
8986;SDS011;4529;51.360;12.474;2023-02-23T12:17:23;31.87;;;21.60;;
8986;SDS011;4529;51.360;12.474;2023-02-23T12:22:31;33.37;;;20.73;;
8986;SDS011;4529;51.360;12.474;2023-02-23T12:27:39;30.20;;;21.13;;
8986;SDS011;4529;51.360;12.474;2023-02-23T12:32:45;30.17;;;21.53;;
8986;SDS011;4529;51.360;12.474;2023-02-23T12:37:52;30.00;;;20.90;;
8986;SDS011;4529;51.360;12.474;2023-02-23T12:53:32;33.70;;;22.73;;
8986;SDS011;4529;51.360;12.474;2023-02-23T12:58:47;35.53;;;24.57;;
8986;SDS011;4529;51.360;12.474;2023-02-23T13:03:59;33.77;;;22.93;;
8986;SDS011;4529;51.360;12.474;2023-02-23T13:09:20;34.67;;;23.40;;
8986;SDS011;4529;51.360;12.474;2023-02-23T13:14:41;34.10;;;21.37;;
8986;SDS011;4529;51.360;12.474;2023-02-23T13:20:02;33.03;;;22.37;;
8986;SDS011;4529;51.360;12.474;2023-02-23T13:25:06;33.87;;;22.80;;
8986;SDS011;4529;51.360;12.474;2023-02-23T13:30:08;32.87;;;23.23;;
8986;SDS011;4529;51.360;12.474;2023-02-23T13:35:15;35.53;;;24.03;;
8986;SDS011;4529;51.360;12.474;2023-02-23T13:51:13;39.90;;;24.23;;
8986;SDS011;4529;51.360;12.474;2023-02-23T13:56:42;39.40;;;24.07;;
8986;SDS011;4529;51.360;12.474;2023-02-23T14:01:46;39.00;;;24.37;;
8986;SDS011;4529;51.360;12.474;2023-02-23T14:06:49;37.30;;;23.90;;
8986;SDS011;4529;51.360;12.474;2023-02-23T14:12:03;44.57;;;26.00;;
8986;SDS011;4529;51.360;12.474;2023-02-23T14:17:38;39.13;;;25.43;;
8986;SDS011;4529;51.360;12.474;2023-02-23T14:33:34;41.97;;;25.50;;
8986;SDS011;4529;51.360;12.474;2023-02-23T14:38:39;41.87;;;25.53;;
8986;SDS011;4529;51.360;12.474;2023-02-23T14:43:43;43.30;;;26.40;;
8986;SDS011;4529;51.360;12.474;2023-02-23T14:48:57;43.93;;;26.50;;
8986;SDS011;4529;51.360;12.474;2023-02-23T14:54:08;44.30;;;26.57;;
8986;SDS011;4529;51.360;12.474;2023-02-23T14:59:06;43.27;;;27.60;;
8986;SDS011;4529;51.360;12.474;2023-02-23T15:04:11;48.03;;;27.93;;
8986;SDS011;4529;51.360;12.474;2023-02-23T15:09:33;42.50;;;27.10;;
8986;SDS011;4529;51.360;12.474;2023-02-23T15:14:19;46.00;;;28.57;;
8986;SDS011;4529;51.360;12.474;2023-02-23T15:19:33;45.90;;;27.37;;
8986;SDS011;4529;51.360;12.474;2023-02-23T15:24:39;45.60;;;28.37;;
8986;SDS011;4529;51.360;12.474;2023-02-23T15:29:42;42.13;;;26.30;;
8986;SDS011;4529;51.360;12.474;2023-02-23T15:34:46;49.03;;;29.40;;
8986;SDS011;4529;51.360;12.474;2023-02-23T15:39:53;45.67;;;27.77;;
8986;SDS011;4529;51.360;12.474;2023-02-23T15:44:57;47.67;;;28.87;;
8986;SDS011;4529;51.360;12.474;2023-02-23T15:50:04;46.63;;;28.70;;
8986;SDS011;4529;51.360;12.474;2023-02-23T15:55:07;46.20;;;27.97;;
8986;SDS011;4529;51.360;12.474;2023-02-23T16:00:13;46.33;;;27.10;;
8986;SDS011;4529;51.360;12.474;2023-02-23T16:05:22;51.03;;;30.00;;
8986;SDS011;4529;51.360;12.474;2023-02-23T16:10:26;57.23;;;30.57;;
8986;SDS011;4529;51.360;12.474;2023-02-23T16:15:31;53.10;;;30.87;;
8986;SDS011;4529;51.360;12.474;2023-02-23T16:20:39;56.03;;;32.10;;
8986;SDS011;4529;51.360;12.474;2023-02-23T16:25:41;55.20;;;30.70;;
8986;SDS011;4529;51.360;12.474;2023-02-23T16:31:07;55.10;;;30.87;;
8986;SDS011;4529;51.360;12.474;2023-02-23T16:36:04;58.03;;;31.67;;
8986;SDS011;4529;51.360;12.474;2023-02-23T16:41:19;55.47;;;31.40;;
8986;SDS011;4529;51.360;12.474;2023-02-23T16:46:21;54.57;;;32.10;;
8986;SDS011;4529;51.360;12.474;2023-02-23T16:51:25;55.83;;;31.53;;
8986;SDS011;4529;51.360;12.474;2023-02-23T16:56:27;62.30;;;32.20;;
8986;SDS011;4529;51.360;12.474;2023-02-23T17:01:31;54.07;;;31.80;;
8986;SDS011;4529;51.360;12.474;2023-02-23T17:06:34;56.70;;;32.03;;
8986;SDS011;4529;51.360;12.474;2023-02-23T17:11:38;59.67;;;32.00;;
8986;SDS011;4529;51.360;12.474;2023-02-23T17:16:43;57.60;;;32.33;;
8986;SDS011;4529;51.360;12.474;2023-02-23T17:21:47;58.30;;;32.00;;
8986;SDS011;4529;51.360;12.474;2023-02-23T17:26:53;63.60;;;32.67;;
8986;SDS011;4529;51.360;12.474;2023-02-23T17:31:56;59.53;;;32.23;;
8986;SDS011;4529;51.360;12.474;2023-02-23T17:37:00;69.10;;;37.80;;
8986;SDS011;4529;51.360;12.474;2023-02-23T17:42:04;94.10;;;47.13;;
8986;SDS011;4529;51.360;12.474;2023-02-23T17:47:08;129.07;;;59.67;;
8986;SDS011;4529;51.360;12.474;2023-02-23T17:52:15;118.17;;;59.57;;
8986;SDS011;4529;51.360;12.474;2023-02-23T17:57:22;84.30;;;41.40;;
8986;SDS011;4529;51.360;12.474;2023-02-23T18:02:23;196.40;;;71.50;;
8986;SDS011;4529;51.360;12.474;2023-02-23T18:07:27;143.77;;;67.47;;
8986;SDS011;4529;51.360;12.474;2023-02-23T18:12:31;77.63;;;41.13;;
8986;SDS011;4529;51.360;12.474;2023-02-23T18:17:34;73.63;;;38.33;;
8986;SDS011;4529;51.360;12.474;2023-02-23T18:22:43;81.20;;;42.30;;
8986;SDS011;4529;51.360;12.474;2023-02-23T18:27:48;73.67;;;40.07;;
8986;SDS011;4529;51.360;12.474;2023-02-23T18:32:50;72.60;;;39.03;;
8986;SDS011;4529;51.360;12.474;2023-02-23T18:37:53;68.57;;;37.97;;
8986;SDS011;4529;51.360;12.474;2023-02-23T18:42:56;73.63;;;39.23;;
8986;SDS011;4529;51.360;12.474;2023-02-23T18:48:00;71.13;;;38.37;;
8986;SDS011;4529;51.360;12.474;2023-02-23T18:53:03;68.70;;;35.77;;
8986;SDS011;4529;51.360;12.474;2023-02-23T18:58:07;68.20;;;35.57;;
8986;SDS011;4529;51.360;12.474;2023-02-23T19:03:10;60.73;;;32.73;;
8986;SDS011;4529;51.360;12.474;2023-02-23T19:08:14;58.90;;;32.77;;
8986;SDS011;4529;51.360;12.474;2023-02-23T19:13:19;43.47;;;25.40;;
8986;SDS011;4529;51.360;12.474;2023-02-23T19:18:22;42.47;;;23.73;;
8986;SDS011;4529;51.360;12.474;2023-02-23T19:23:26;42.37;;;24.07;;
8986;SDS011;4529;51.360;12.474;2023-02-23T19:28:29;41.30;;;24.67;;
8986;SDS011;4529;51.360;12.474;2023-02-23T19:33:33;39.43;;;23.43;;
8986;SDS011;4529;51.360;12.474;2023-02-23T19:38:36;42.73;;;25.87;;
8986;SDS011;4529;51.360;12.474;2023-02-23T19:43:40;41.93;;;24.63;;
8986;SDS011;4529;51.360;12.474;2023-02-23T19:48:46;38.70;;;21.97;;
8986;SDS011;4529;51.360;12.474;2023-02-23T19:53:47;37.33;;;22.10;;
8986;SDS011;4529;51.360;12.474;2023-02-23T20:04:01;35.47;;;21.00;;
8986;SDS011;4529;51.360;12.474;2023-02-23T20:09:05;32.17;;;20.43;;
8986;SDS011;4529;51.360;12.474;2023-02-23T20:14:08;29.30;;;19.40;;
8986;SDS011;4529;51.360;12.474;2023-02-23T20:19:12;29.27;;;19.10;;
8986;SDS011;4529;51.360;12.474;2023-02-23T20:24:17;32.57;;;19.70;;
8986;SDS011;4529;51.360;12.474;2023-02-23T20:29:20;28.90;;;18.20;;
8986;SDS011;4529;51.360;12.474;2023-02-23T20:34:24;28.33;;;19.10;;
8986;SDS011;4529;51.360;12.474;2023-02-23T20:39:27;30.60;;;20.23;;
8986;SDS011;4529;51.360;12.474;2023-02-23T20:44:31;33.83;;;21.80;;
8986;SDS011;4529;51.360;12.474;2023-02-23T20:49:44;26.73;;;18.93;;
8986;SDS011;4529;51.360;12.474;2023-02-23T20:54:48;27.93;;;19.03;;
8986;SDS011;4529;51.360;12.474;2023-02-23T20:59:51;27.17;;;18.47;;
8986;SDS011;4529;51.360;12.474;2023-02-23T21:04:55;29.67;;;19.77;;
8986;SDS011;4529;51.360;12.474;2023-02-23T21:09:58;28.03;;;18.73;;
8986;SDS011;4529;51.360;12.474;2023-02-23T21:15:02;26.97;;;18.47;;
8986;SDS011;4529;51.360;12.474;2023-02-23T21:20:07;27.50;;;17.60;;
8986;SDS011;4529;51.360;12.474;2023-02-23T21:25:10;31.77;;;18.43;;
8986;SDS011;4529;51.360;12.474;2023-02-23T21:30:15;26.67;;;17.43;;
8986;SDS011;4529;51.360;12.474;2023-02-23T21:35:19;25.57;;;16.50;;
8986;SDS011;4529;51.360;12.474;2023-02-23T21:40:22;24.43;;;15.57;;
8986;SDS011;4529;51.360;12.474;2023-02-23T21:45:27;26.27;;;15.67;;
8986;SDS011;4529;51.360;12.474;2023-02-23T21:50:30;25.80;;;16.77;;
8986;SDS011;4529;51.360;12.474;2023-02-23T21:55:35;28.57;;;16.77;;
8986;SDS011;4529;51.360;12.474;2023-02-23T22:00:40;24.37;;;16.53;;
8986;SDS011;4529;51.360;12.474;2023-02-23T22:05:44;26.80;;;16.47;;
8986;SDS011;4529;51.360;12.474;2023-02-23T22:10:47;25.23;;;16.00;;
8986;SDS011;4529;51.360;12.474;2023-02-23T22:15:56;24.77;;;16.20;;
8986;SDS011;4529;51.360;12.474;2023-02-23T22:21:01;24.40;;;16.00;;
8986;SDS011;4529;51.360;12.474;2023-02-23T22:26:05;24.13;;;15.63;;
8986;SDS011;4529;51.360;12.474;2023-02-23T22:31:09;23.77;;;14.47;;
8986;SDS011;4529;51.360;12.474;2023-02-23T22:36:12;24.73;;;15.40;;
8986;SDS011;4529;51.360;12.474;2023-02-23T22:41:16;27.67;;;15.10;;
8986;SDS011;4529;51.360;12.474;2023-02-23T22:46:20;24.70;;;15.03;;
8986;SDS011;4529;51.360;12.474;2023-02-23T22:51:36;25.13;;;15.20;;
8986;SDS011;4529;51.360;12.474;2023-02-23T22:56:39;22.40;;;13.77;;
8986;SDS011;4529;51.360;12.474;2023-02-23T23:01:42;23.90;;;12.47;;
8986;SDS011;4529;51.360;12.474;2023-02-23T23:06:46;21.23;;;12.93;;
8986;SDS011;4529;51.360;12.474;2023-02-23T23:11:49;21.30;;;13.10;;
8986;SDS011;4529;51.360;12.474;2023-02-23T23:16:53;22.70;;;13.10;;
8986;SDS011;4529;51.360;12.474;2023-02-23T23:21:57;23.53;;;12.40;;
8986;SDS011;4529;51.360;12.474;2023-02-23T23:27:00;23.60;;;13.13;;
8986;SDS011;4529;51.360;12.474;2023-02-23T23:32:04;24.30;;;13.90;;
8986;SDS011;4529;51.360;12.474;2023-02-23T23:37:07;21.73;;;13.07;;
8986;SDS011;4529;51.360;12.474;2023-02-23T23:42:11;22.90;;;12.70;;
8986;SDS011;4529;51.360;12.474;2023-02-23T23:47:14;20.13;;;12.03;;
8986;SDS011;4529;51.360;12.474;2023-02-23T23:52:18;18.27;;;11.90;;
8986;SDS011;4529;51.360;12.474;2023-02-23T23:57:22;20.53;;;11.80;;
